<?xml version="1.0" encoding="UTF-8" standalone="no" ?>
<gpx xmlns="http://www.topografix.com/GPX/1/1" xmlns:xsi="http://www.w3.org/2001/XMLSchema-instance" xsi:schemaLocation="http://www.topografix.com/GPX/1/1 http://www.topografix.com/GPX/1/1/gpx.xsd" version="1.1" creator="VisuGPX - https://www.visugpx.com">
  <metadata>
    <name>footting 1</name>
    <desc><![CDATA[footing dimanche 3.02.2013]]></desc>
  </metadata>
  <trk>
    <name><![CDATA[footting 1_1]]></name>
    <trkseg>
      <trkpt lat="46.77941" lon="4.82265">
        <ele>186.1</ele>
        <time>2013-02-03T11:18:34Z</time>
      </trkpt>
      <trkpt lat="46.77941" lon="4.82265">
        <ele>229</ele>
        <time>2013-02-03T11:18:41Z</time>
      </trkpt>
      <trkpt lat="46.77949" lon="4.82296">
        <ele>230</ele>
        <time>2013-02-03T11:19:04Z</time>
      </trkpt>
      <trkpt lat="46.77956" lon="4.8233">
        <ele>230</ele>
        <time>2013-02-03T11:19:13Z</time>
      </trkpt>
      <trkpt lat="46.77964" lon="4.82353">
        <ele>230</ele>
        <time>2013-02-03T11:19:20Z</time>
      </trkpt>
      <trkpt lat="46.77967" lon="4.82363">
        <ele>230</ele>
        <time>2013-02-03T11:19:23Z</time>
      </trkpt>
      <trkpt lat="46.7797" lon="4.82374">
        <ele>230</ele>
        <time>2013-02-03T11:19:26Z</time>
      </trkpt>
      <trkpt lat="46.77979" lon="4.82403">
        <ele>230</ele>
        <time>2013-02-03T11:19:35Z</time>
      </trkpt>
      <trkpt lat="46.7799" lon="4.82435">
        <ele>230</ele>
        <time>2013-02-03T11:19:45Z</time>
      </trkpt>
      <trkpt lat="46.77994" lon="4.82451">
        <ele>230</ele>
        <time>2013-02-03T11:19:50Z</time>
      </trkpt>
      <trkpt lat="46.77998" lon="4.82461">
        <ele>230</ele>
        <time>2013-02-03T11:19:53Z</time>
      </trkpt>
      <trkpt lat="46.78" lon="4.8247">
        <ele>230</ele>
        <time>2013-02-03T11:19:56Z</time>
      </trkpt>
      <trkpt lat="46.78009" lon="4.82499">
        <ele>230</ele>
        <time>2013-02-03T11:20:05Z</time>
      </trkpt>
      <trkpt lat="46.78018" lon="4.82528">
        <ele>230</ele>
        <time>2013-02-03T11:20:14Z</time>
      </trkpt>
      <trkpt lat="46.78022" lon="4.82555">
        <ele>230</ele>
        <time>2013-02-03T11:20:22Z</time>
      </trkpt>
      <trkpt lat="46.78025" lon="4.82582">
        <ele>229</ele>
        <time>2013-02-03T11:20:31Z</time>
      </trkpt>
      <trkpt lat="46.78026" lon="4.82591">
        <ele>229</ele>
        <time>2013-02-03T11:20:34Z</time>
      </trkpt>
      <trkpt lat="46.78028" lon="4.82606">
        <ele>229</ele>
        <time>2013-02-03T11:20:39Z</time>
      </trkpt>
      <trkpt lat="46.78032" lon="4.82638">
        <ele>229</ele>
        <time>2013-02-03T11:20:49Z</time>
      </trkpt>
      <trkpt lat="46.78033" lon="4.82666">
        <ele>229</ele>
        <time>2013-02-03T11:20:57Z</time>
      </trkpt>
      <trkpt lat="46.78031" lon="4.82697">
        <ele>229</ele>
        <time>2013-02-03T11:21:06Z</time>
      </trkpt>
      <trkpt lat="46.7803" lon="4.82717">
        <ele>228</ele>
        <time>2013-02-03T11:21:12Z</time>
      </trkpt>
      <trkpt lat="46.78028" lon="4.82746">
        <ele>228</ele>
        <time>2013-02-03T11:21:21Z</time>
      </trkpt>
      <trkpt lat="46.78025" lon="4.82762">
        <ele>228</ele>
        <time>2013-02-03T11:21:26Z</time>
      </trkpt>
      <trkpt lat="46.78019" lon="4.82777">
        <ele>228</ele>
        <time>2013-02-03T11:21:31Z</time>
      </trkpt>
      <trkpt lat="46.78008" lon="4.82803">
        <ele>228</ele>
        <time>2013-02-03T11:21:40Z</time>
      </trkpt>
      <trkpt lat="46.77994" lon="4.82825">
        <ele>227</ele>
        <time>2013-02-03T11:21:49Z</time>
      </trkpt>
      <trkpt lat="46.77974" lon="4.82836">
        <ele>227</ele>
        <time>2013-02-03T11:22:00Z</time>
      </trkpt>
      <trkpt lat="46.77952" lon="4.82835">
        <ele>227</ele>
        <time>2013-02-03T11:22:10Z</time>
      </trkpt>
      <trkpt lat="46.77946" lon="4.82834">
        <ele>227</ele>
        <time>2013-02-03T11:22:13Z</time>
      </trkpt>
      <trkpt lat="46.77926" lon="4.82829">
        <ele>227</ele>
        <time>2013-02-03T11:22:22Z</time>
      </trkpt>
      <trkpt lat="46.77908" lon="4.82826">
        <ele>227</ele>
        <time>2013-02-03T11:22:30Z</time>
      </trkpt>
      <trkpt lat="46.77884" lon="4.82825">
        <ele>227</ele>
        <time>2013-02-03T11:22:41Z</time>
      </trkpt>
      <trkpt lat="46.77864" lon="4.82826">
        <ele>226</ele>
        <time>2013-02-03T11:22:50Z</time>
      </trkpt>
      <trkpt lat="46.77842" lon="4.82827">
        <ele>226</ele>
        <time>2013-02-03T11:22:59Z</time>
      </trkpt>
      <trkpt lat="46.77833" lon="4.8283">
        <ele>226</ele>
        <time>2013-02-03T11:23:04Z</time>
      </trkpt>
      <trkpt lat="46.77832" lon="4.82844">
        <ele>226</ele>
        <time>2013-02-03T11:23:12Z</time>
      </trkpt>
      <trkpt lat="46.77833" lon="4.82873">
        <ele>225</ele>
        <time>2013-02-03T11:23:23Z</time>
      </trkpt>
      <trkpt lat="46.77837" lon="4.82909">
        <ele>225</ele>
        <time>2013-02-03T11:23:32Z</time>
      </trkpt>
      <trkpt lat="46.77838" lon="4.8292">
        <ele>225</ele>
        <time>2013-02-03T11:23:35Z</time>
      </trkpt>
      <trkpt lat="46.77839" lon="4.82929">
        <ele>224</ele>
        <time>2013-02-03T11:23:38Z</time>
      </trkpt>
      <trkpt lat="46.77846" lon="4.82956">
        <ele>224</ele>
        <time>2013-02-03T11:23:46Z</time>
      </trkpt>
      <trkpt lat="46.77849" lon="4.82974">
        <ele>224</ele>
        <time>2013-02-03T11:23:51Z</time>
      </trkpt>
      <trkpt lat="46.77851" lon="4.82983">
        <ele>224</ele>
        <time>2013-02-03T11:23:54Z</time>
      </trkpt>
      <trkpt lat="46.77855" lon="4.82999">
        <ele>225</ele>
        <time>2013-02-03T11:23:59Z</time>
      </trkpt>
      <trkpt lat="46.77861" lon="4.83026">
        <ele>224</ele>
        <time>2013-02-03T11:24:08Z</time>
      </trkpt>
      <trkpt lat="46.77869" lon="4.83056">
        <ele>224</ele>
        <time>2013-02-03T11:24:18Z</time>
      </trkpt>
      <trkpt lat="46.77871" lon="4.83065">
        <ele>224</ele>
        <time>2013-02-03T11:24:21Z</time>
      </trkpt>
      <trkpt lat="46.77875" lon="4.8308">
        <ele>224</ele>
        <time>2013-02-03T11:24:26Z</time>
      </trkpt>
      <trkpt lat="46.77884" lon="4.83111">
        <ele>224</ele>
        <time>2013-02-03T11:24:36Z</time>
      </trkpt>
      <trkpt lat="46.7789" lon="4.83138">
        <ele>224</ele>
        <time>2013-02-03T11:24:45Z</time>
      </trkpt>
      <trkpt lat="46.77897" lon="4.83166">
        <ele>224</ele>
        <time>2013-02-03T11:24:54Z</time>
      </trkpt>
      <trkpt lat="46.77903" lon="4.83195">
        <ele>224</ele>
        <time>2013-02-03T11:25:03Z</time>
      </trkpt>
      <trkpt lat="46.77907" lon="4.8321">
        <ele>224</ele>
        <time>2013-02-03T11:25:08Z</time>
      </trkpt>
      <trkpt lat="46.77912" lon="4.83232">
        <ele>224</ele>
        <time>2013-02-03T11:25:15Z</time>
      </trkpt>
      <trkpt lat="46.77918" lon="4.83254">
        <ele>224</ele>
        <time>2013-02-03T11:25:22Z</time>
      </trkpt>
      <trkpt lat="46.7792" lon="4.83263">
        <ele>224</ele>
        <time>2013-02-03T11:25:25Z</time>
      </trkpt>
      <trkpt lat="46.77922" lon="4.83272">
        <ele>224</ele>
        <time>2013-02-03T11:25:28Z</time>
      </trkpt>
      <trkpt lat="46.77925" lon="4.83281">
        <ele>224</ele>
        <time>2013-02-03T11:25:31Z</time>
      </trkpt>
      <trkpt lat="46.77931" lon="4.83309">
        <ele>224</ele>
        <time>2013-02-03T11:25:41Z</time>
      </trkpt>
      <trkpt lat="46.7793" lon="4.83328">
        <ele>224</ele>
        <time>2013-02-03T11:25:48Z</time>
      </trkpt>
      <trkpt lat="46.77921" lon="4.83355">
        <ele>224</ele>
        <time>2013-02-03T11:25:58Z</time>
      </trkpt>
      <trkpt lat="46.77904" lon="4.83366">
        <ele>224</ele>
        <time>2013-02-03T11:26:07Z</time>
      </trkpt>
      <trkpt lat="46.77884" lon="4.83365">
        <ele>224</ele>
        <time>2013-02-03T11:26:16Z</time>
      </trkpt>
      <trkpt lat="46.77864" lon="4.83369">
        <ele>224</ele>
        <time>2013-02-03T11:26:25Z</time>
      </trkpt>
      <trkpt lat="46.7785" lon="4.83373">
        <ele>223</ele>
        <time>2013-02-03T11:26:31Z</time>
      </trkpt>
      <trkpt lat="46.77843" lon="4.83375">
        <ele>223</ele>
        <time>2013-02-03T11:26:34Z</time>
      </trkpt>
      <trkpt lat="46.77837" lon="4.83378">
        <ele>223</ele>
        <time>2013-02-03T11:26:37Z</time>
      </trkpt>
      <trkpt lat="46.77817" lon="4.83386">
        <ele>224</ele>
        <time>2013-02-03T11:26:46Z</time>
      </trkpt>
      <trkpt lat="46.77796" lon="4.83394">
        <ele>224</ele>
        <time>2013-02-03T11:26:55Z</time>
      </trkpt>
      <trkpt lat="46.77777" lon="4.83403">
        <ele>224</ele>
        <time>2013-02-03T11:27:04Z</time>
      </trkpt>
      <trkpt lat="46.77771" lon="4.83407">
        <ele>224</ele>
        <time>2013-02-03T11:27:07Z</time>
      </trkpt>
      <trkpt lat="46.77765" lon="4.8341">
        <ele>224</ele>
        <time>2013-02-03T11:27:10Z</time>
      </trkpt>
      <trkpt lat="46.77747" lon="4.83422">
        <ele>224</ele>
        <time>2013-02-03T11:27:19Z</time>
      </trkpt>
      <trkpt lat="46.77741" lon="4.83427">
        <ele>224</ele>
        <time>2013-02-03T11:27:22Z</time>
      </trkpt>
      <trkpt lat="46.77735" lon="4.83431">
        <ele>224</ele>
        <time>2013-02-03T11:27:25Z</time>
      </trkpt>
      <trkpt lat="46.7773" lon="4.83436">
        <ele>224</ele>
        <time>2013-02-03T11:27:28Z</time>
      </trkpt>
      <trkpt lat="46.77713" lon="4.83453">
        <ele>224</ele>
        <time>2013-02-03T11:27:38Z</time>
      </trkpt>
      <trkpt lat="46.77695" lon="4.83472">
        <ele>223</ele>
        <time>2013-02-03T11:27:48Z</time>
      </trkpt>
      <trkpt lat="46.7768" lon="4.8349">
        <ele>223</ele>
        <time>2013-02-03T11:27:57Z</time>
      </trkpt>
      <trkpt lat="46.77665" lon="4.83508">
        <ele>223</ele>
        <time>2013-02-03T11:28:06Z</time>
      </trkpt>
      <trkpt lat="46.7765" lon="4.83527">
        <ele>223</ele>
        <time>2013-02-03T11:28:16Z</time>
      </trkpt>
      <trkpt lat="46.77644" lon="4.83532">
        <ele>223</ele>
        <time>2013-02-03T11:28:19Z</time>
      </trkpt>
      <trkpt lat="46.77628" lon="4.83552">
        <ele>223</ele>
        <time>2013-02-03T11:28:29Z</time>
      </trkpt>
      <trkpt lat="46.77623" lon="4.83558">
        <ele>223</ele>
        <time>2013-02-03T11:28:32Z</time>
      </trkpt>
      <trkpt lat="46.77608" lon="4.83575">
        <ele>223</ele>
        <time>2013-02-03T11:28:41Z</time>
      </trkpt>
      <trkpt lat="46.77591" lon="4.83596">
        <ele>223</ele>
        <time>2013-02-03T11:28:51Z</time>
      </trkpt>
      <trkpt lat="46.77586" lon="4.83602">
        <ele>223</ele>
        <time>2013-02-03T11:28:54Z</time>
      </trkpt>
      <trkpt lat="46.77571" lon="4.8362">
        <ele>223</ele>
        <time>2013-02-03T11:29:03Z</time>
      </trkpt>
      <trkpt lat="46.77555" lon="4.83638">
        <ele>223</ele>
        <time>2013-02-03T11:29:13Z</time>
      </trkpt>
      <trkpt lat="46.7754" lon="4.83656">
        <ele>224</ele>
        <time>2013-02-03T11:29:23Z</time>
      </trkpt>
      <trkpt lat="46.77524" lon="4.83675">
        <ele>224</ele>
        <time>2013-02-03T11:29:33Z</time>
      </trkpt>
      <trkpt lat="46.77519" lon="4.83681">
        <ele>224</ele>
        <time>2013-02-03T11:29:36Z</time>
      </trkpt>
      <trkpt lat="46.77514" lon="4.83687">
        <ele>224</ele>
        <time>2013-02-03T11:29:39Z</time>
      </trkpt>
      <trkpt lat="46.77509" lon="4.83693">
        <ele>224</ele>
        <time>2013-02-03T11:29:42Z</time>
      </trkpt>
      <trkpt lat="46.77505" lon="4.83699">
        <ele>224</ele>
        <time>2013-02-03T11:29:45Z</time>
      </trkpt>
      <trkpt lat="46.77487" lon="4.83719">
        <ele>224</ele>
        <time>2013-02-03T11:29:55Z</time>
      </trkpt>
      <trkpt lat="46.77477" lon="4.83731">
        <ele>224</ele>
        <time>2013-02-03T11:30:01Z</time>
      </trkpt>
      <trkpt lat="46.77472" lon="4.83738">
        <ele>224</ele>
        <time>2013-02-03T11:30:04Z</time>
      </trkpt>
      <trkpt lat="46.77467" lon="4.83744">
        <ele>224</ele>
        <time>2013-02-03T11:30:07Z</time>
      </trkpt>
      <trkpt lat="46.77453" lon="4.83761">
        <ele>225</ele>
        <time>2013-02-03T11:30:15Z</time>
      </trkpt>
      <trkpt lat="46.77439" lon="4.83776">
        <ele>225</ele>
        <time>2013-02-03T11:30:23Z</time>
      </trkpt>
      <trkpt lat="46.77425" lon="4.83796">
        <ele>225</ele>
        <time>2013-02-03T11:30:32Z</time>
      </trkpt>
      <trkpt lat="46.7741" lon="4.83821">
        <ele>225</ele>
        <time>2013-02-03T11:30:42Z</time>
      </trkpt>
      <trkpt lat="46.77399" lon="4.83846">
        <ele>225</ele>
        <time>2013-02-03T11:30:51Z</time>
      </trkpt>
      <trkpt lat="46.77396" lon="4.83855">
        <ele>225</ele>
        <time>2013-02-03T11:30:54Z</time>
      </trkpt>
      <trkpt lat="46.7739" lon="4.83881">
        <ele>225</ele>
        <time>2013-02-03T11:31:03Z</time>
      </trkpt>
      <trkpt lat="46.77385" lon="4.83909">
        <ele>224</ele>
        <time>2013-02-03T11:31:14Z</time>
      </trkpt>
      <trkpt lat="46.77381" lon="4.83945">
        <ele>224</ele>
        <time>2013-02-03T11:31:26Z</time>
      </trkpt>
      <trkpt lat="46.77377" lon="4.83976">
        <ele>224</ele>
        <time>2013-02-03T11:31:35Z</time>
      </trkpt>
      <trkpt lat="46.77363" lon="4.84002">
        <ele>224</ele>
        <time>2013-02-03T11:31:46Z</time>
      </trkpt>
      <trkpt lat="46.77347" lon="4.83984">
        <ele>224</ele>
        <time>2013-02-03T11:31:52Z</time>
      </trkpt>
      <trkpt lat="46.77331" lon="4.83993">
        <ele>225</ele>
        <time>2013-02-03T11:32:01Z</time>
      </trkpt>
      <trkpt lat="46.77327" lon="4.84031">
        <ele>225</ele>
        <time>2013-02-03T11:32:13Z</time>
      </trkpt>
      <trkpt lat="46.77324" lon="4.84047">
        <ele>225</ele>
        <time>2013-02-03T11:32:18Z</time>
      </trkpt>
      <trkpt lat="46.77307" lon="4.84056">
        <ele>224</ele>
        <time>2013-02-03T11:32:27Z</time>
      </trkpt>
      <trkpt lat="46.77294" lon="4.84048">
        <ele>224</ele>
        <time>2013-02-03T11:32:34Z</time>
      </trkpt>
      <trkpt lat="46.77275" lon="4.84035">
        <ele>224</ele>
        <time>2013-02-03T11:32:43Z</time>
      </trkpt>
      <trkpt lat="46.77255" lon="4.84025">
        <ele>224</ele>
        <time>2013-02-03T11:32:52Z</time>
      </trkpt>
      <trkpt lat="46.77238" lon="4.84015">
        <ele>223</ele>
        <time>2013-02-03T11:33:00Z</time>
      </trkpt>
      <trkpt lat="46.77231" lon="4.84011">
        <ele>223</ele>
        <time>2013-02-03T11:33:03Z</time>
      </trkpt>
      <trkpt lat="46.77215" lon="4.84">
        <ele>223</ele>
        <time>2013-02-03T11:33:11Z</time>
      </trkpt>
      <trkpt lat="46.77196" lon="4.83988">
        <ele>223</ele>
        <time>2013-02-03T11:33:20Z</time>
      </trkpt>
      <trkpt lat="46.77178" lon="4.83977">
        <ele>223</ele>
        <time>2013-02-03T11:33:29Z</time>
      </trkpt>
      <trkpt lat="46.7717" lon="4.83972">
        <ele>223</ele>
        <time>2013-02-03T11:33:33Z</time>
      </trkpt>
      <trkpt lat="46.77159" lon="4.83966">
        <ele>223</ele>
        <time>2013-02-03T11:33:38Z</time>
      </trkpt>
      <trkpt lat="46.77153" lon="4.83962">
        <ele>222</ele>
        <time>2013-02-03T11:33:41Z</time>
      </trkpt>
      <trkpt lat="46.77134" lon="4.83953">
        <ele>222</ele>
        <time>2013-02-03T11:33:50Z</time>
      </trkpt>
      <trkpt lat="46.77127" lon="4.83951">
        <ele>222</ele>
        <time>2013-02-03T11:33:53Z</time>
      </trkpt>
      <trkpt lat="46.77109" lon="4.83944">
        <ele>222</ele>
        <time>2013-02-03T11:34:02Z</time>
      </trkpt>
      <trkpt lat="46.77089" lon="4.83938">
        <ele>222</ele>
        <time>2013-02-03T11:34:11Z</time>
      </trkpt>
      <trkpt lat="46.77071" lon="4.83935">
        <ele>222</ele>
        <time>2013-02-03T11:34:19Z</time>
      </trkpt>
      <trkpt lat="46.7705" lon="4.83931">
        <ele>222</ele>
        <time>2013-02-03T11:34:29Z</time>
      </trkpt>
      <trkpt lat="46.77043" lon="4.83929">
        <ele>222</ele>
        <time>2013-02-03T11:34:32Z</time>
      </trkpt>
      <trkpt lat="46.77033" lon="4.83928">
        <ele>222</ele>
        <time>2013-02-03T11:34:37Z</time>
      </trkpt>
      <trkpt lat="46.77012" lon="4.83925">
        <ele>222</ele>
        <time>2013-02-03T11:34:47Z</time>
      </trkpt>
      <trkpt lat="46.7699" lon="4.83922">
        <ele>221</ele>
        <time>2013-02-03T11:34:57Z</time>
      </trkpt>
      <trkpt lat="46.76983" lon="4.83921">
        <ele>221</ele>
        <time>2013-02-03T11:35:00Z</time>
      </trkpt>
      <trkpt lat="46.76966" lon="4.83918">
        <ele>221</ele>
        <time>2013-02-03T11:35:08Z</time>
      </trkpt>
      <trkpt lat="46.76959" lon="4.83918">
        <ele>221</ele>
        <time>2013-02-03T11:35:11Z</time>
      </trkpt>
      <trkpt lat="46.76953" lon="4.83917">
        <ele>221</ele>
        <time>2013-02-03T11:35:14Z</time>
      </trkpt>
      <trkpt lat="46.76933" lon="4.83913">
        <ele>222</ele>
        <time>2013-02-03T11:35:24Z</time>
      </trkpt>
      <trkpt lat="46.76914" lon="4.83907">
        <ele>222</ele>
        <time>2013-02-03T11:35:33Z</time>
      </trkpt>
      <trkpt lat="46.76894" lon="4.83902">
        <ele>222</ele>
        <time>2013-02-03T11:35:43Z</time>
      </trkpt>
      <trkpt lat="46.76873" lon="4.83896">
        <ele>222</ele>
        <time>2013-02-03T11:35:53Z</time>
      </trkpt>
      <trkpt lat="46.76864" lon="4.83894">
        <ele>222</ele>
        <time>2013-02-03T11:35:58Z</time>
      </trkpt>
      <trkpt lat="46.7685" lon="4.83888">
        <ele>222</ele>
        <time>2013-02-03T11:36:05Z</time>
      </trkpt>
      <trkpt lat="46.7684" lon="4.83888">
        <ele>222</ele>
        <time>2013-02-03T11:36:10Z</time>
      </trkpt>
      <trkpt lat="46.7683" lon="4.83886">
        <ele>222</ele>
        <time>2013-02-03T11:36:15Z</time>
      </trkpt>
      <trkpt lat="46.7681" lon="4.83886">
        <ele>222</ele>
        <time>2013-02-03T11:36:25Z</time>
      </trkpt>
      <trkpt lat="46.76798" lon="4.8389">
        <ele>222</ele>
        <time>2013-02-03T11:36:34Z</time>
      </trkpt>
      <trkpt lat="46.76772" lon="4.83905">
        <ele>222</ele>
        <time>2013-02-03T11:36:49Z</time>
      </trkpt>
      <trkpt lat="46.76764" lon="4.8391">
        <ele>221</ele>
        <time>2013-02-03T11:36:56Z</time>
      </trkpt>
      <trkpt lat="46.76743" lon="4.83924">
        <ele>221</ele>
        <time>2013-02-03T11:37:11Z</time>
      </trkpt>
      <trkpt lat="46.76724" lon="4.83942">
        <ele>221</ele>
        <time>2013-02-03T11:37:27Z</time>
      </trkpt>
      <trkpt lat="46.76705" lon="4.83942">
        <ele>221</ele>
        <time>2013-02-03T11:37:44Z</time>
      </trkpt>
      <trkpt lat="46.76686" lon="4.83933">
        <ele>221</ele>
        <time>2013-02-03T11:37:59Z</time>
      </trkpt>
      <trkpt lat="46.76669" lon="4.83944">
        <ele>221</ele>
        <time>2013-02-03T11:38:18Z</time>
      </trkpt>
      <trkpt lat="46.76669" lon="4.83944">
        <ele>221</ele>
        <time>2013-02-03T11:38:26Z</time>
      </trkpt>
      <trkpt lat="46.76669" lon="4.83944">
        <ele>221</ele>
        <time>2013-02-03T11:38:27Z</time>
      </trkpt>
      <trkpt lat="46.76663" lon="4.8398">
        <ele>221</ele>
        <time>2013-02-03T11:39:11Z</time>
      </trkpt>
      <trkpt lat="46.76635" lon="4.84004">
        <ele>221</ele>
        <time>2013-02-03T11:39:28Z</time>
      </trkpt>
      <trkpt lat="46.76617" lon="4.84019">
        <ele>221</ele>
        <time>2013-02-03T11:39:38Z</time>
      </trkpt>
      <trkpt lat="46.76597" lon="4.84031">
        <ele>221</ele>
        <time>2013-02-03T11:39:48Z</time>
      </trkpt>
      <trkpt lat="46.76591" lon="4.84036">
        <ele>221</ele>
        <time>2013-02-03T11:39:51Z</time>
      </trkpt>
      <trkpt lat="46.76572" lon="4.84048">
        <ele>221</ele>
        <time>2013-02-03T11:40:00Z</time>
      </trkpt>
      <trkpt lat="46.76555" lon="4.8406">
        <ele>220</ele>
        <time>2013-02-03T11:40:08Z</time>
      </trkpt>
      <trkpt lat="46.76537" lon="4.84075">
        <ele>220</ele>
        <time>2013-02-03T11:40:17Z</time>
      </trkpt>
      <trkpt lat="46.76532" lon="4.84081">
        <ele>220</ele>
        <time>2013-02-03T11:40:20Z</time>
      </trkpt>
      <trkpt lat="46.76516" lon="4.84099">
        <ele>220</ele>
        <time>2013-02-03T11:40:29Z</time>
      </trkpt>
      <trkpt lat="46.765" lon="4.84117">
        <ele>220</ele>
        <time>2013-02-03T11:40:38Z</time>
      </trkpt>
      <trkpt lat="46.76486" lon="4.84137">
        <ele>220</ele>
        <time>2013-02-03T11:40:47Z</time>
      </trkpt>
      <trkpt lat="46.76468" lon="4.84154">
        <ele>220</ele>
        <time>2013-02-03T11:40:59Z</time>
      </trkpt>
      <trkpt lat="46.76451" lon="4.84131">
        <ele>220</ele>
        <time>2013-02-03T11:41:10Z</time>
      </trkpt>
      <trkpt lat="46.76437" lon="4.8411">
        <ele>220</ele>
        <time>2013-02-03T11:41:20Z</time>
      </trkpt>
      <trkpt lat="46.76423" lon="4.84089">
        <ele>220</ele>
        <time>2013-02-03T11:41:30Z</time>
      </trkpt>
      <trkpt lat="46.76413" lon="4.84074">
        <ele>221</ele>
        <time>2013-02-03T11:41:37Z</time>
      </trkpt>
      <trkpt lat="46.764" lon="4.84055">
        <ele>221</ele>
        <time>2013-02-03T11:41:46Z</time>
      </trkpt>
      <trkpt lat="46.76395" lon="4.84048">
        <ele>221</ele>
        <time>2013-02-03T11:41:49Z</time>
      </trkpt>
      <trkpt lat="46.7639" lon="4.84042">
        <ele>221</ele>
        <time>2013-02-03T11:41:52Z</time>
      </trkpt>
      <trkpt lat="46.76386" lon="4.84035">
        <ele>221</ele>
        <time>2013-02-03T11:41:55Z</time>
      </trkpt>
      <trkpt lat="46.76374" lon="4.84015">
        <ele>221</ele>
        <time>2013-02-03T11:42:04Z</time>
      </trkpt>
      <trkpt lat="46.76358" lon="4.83993">
        <ele>222</ele>
        <time>2013-02-03T11:42:15Z</time>
      </trkpt>
      <trkpt lat="46.76347" lon="4.83968">
        <ele>222</ele>
        <time>2013-02-03T11:42:25Z</time>
      </trkpt>
      <trkpt lat="46.76339" lon="4.83947">
        <ele>223</ele>
        <time>2013-02-03T11:42:38Z</time>
      </trkpt>
      <trkpt lat="46.76329" lon="4.83925">
        <ele>224</ele>
        <time>2013-02-03T11:42:55Z</time>
      </trkpt>
      <trkpt lat="46.7632" lon="4.83905">
        <ele>225</ele>
        <time>2013-02-03T11:43:09Z</time>
      </trkpt>
      <trkpt lat="46.76312" lon="4.83882">
        <ele>226</ele>
        <time>2013-02-03T11:43:24Z</time>
      </trkpt>
      <trkpt lat="46.76302" lon="4.83861">
        <ele>227</ele>
        <time>2013-02-03T11:43:39Z</time>
      </trkpt>
      <trkpt lat="46.76297" lon="4.83845">
        <ele>227</ele>
        <time>2013-02-03T11:43:48Z</time>
      </trkpt>
      <trkpt lat="46.76288" lon="4.83811">
        <ele>227</ele>
        <time>2013-02-03T11:44:00Z</time>
      </trkpt>
      <trkpt lat="46.76278" lon="4.83782">
        <ele>227</ele>
        <time>2013-02-03T11:44:07Z</time>
      </trkpt>
      <trkpt lat="46.76267" lon="4.83754">
        <ele>228</ele>
        <time>2013-02-03T11:44:15Z</time>
      </trkpt>
      <trkpt lat="46.76263" lon="4.83745">
        <ele>228</ele>
        <time>2013-02-03T11:44:18Z</time>
      </trkpt>
      <trkpt lat="46.76251" lon="4.8372">
        <ele>228</ele>
        <time>2013-02-03T11:44:27Z</time>
      </trkpt>
      <trkpt lat="46.76247" lon="4.83712">
        <ele>228</ele>
        <time>2013-02-03T11:44:30Z</time>
      </trkpt>
      <trkpt lat="46.76231" lon="4.83693">
        <ele>228</ele>
        <time>2013-02-03T11:44:38Z</time>
      </trkpt>
      <trkpt lat="46.76213" lon="4.83678">
        <ele>228</ele>
        <time>2013-02-03T11:44:46Z</time>
      </trkpt>
      <trkpt lat="46.76196" lon="4.83664">
        <ele>229</ele>
        <time>2013-02-03T11:44:55Z</time>
      </trkpt>
      <trkpt lat="46.76185" lon="4.83652">
        <ele>229</ele>
        <time>2013-02-03T11:45:01Z</time>
      </trkpt>
      <trkpt lat="46.76178" lon="4.83636">
        <ele>229</ele>
        <time>2013-02-03T11:45:07Z</time>
      </trkpt>
      <trkpt lat="46.7617" lon="4.83607">
        <ele>229</ele>
        <time>2013-02-03T11:45:17Z</time>
      </trkpt>
      <trkpt lat="46.76165" lon="4.83581">
        <ele>230</ele>
        <time>2013-02-03T11:45:26Z</time>
      </trkpt>
      <trkpt lat="46.76158" lon="4.83552">
        <ele>230</ele>
        <time>2013-02-03T11:45:36Z</time>
      </trkpt>
      <trkpt lat="46.76151" lon="4.83524">
        <ele>230</ele>
        <time>2013-02-03T11:45:45Z</time>
      </trkpt>
      <trkpt lat="46.76146" lon="4.8351">
        <ele>230</ele>
        <time>2013-02-03T11:45:50Z</time>
      </trkpt>
      <trkpt lat="46.76138" lon="4.83491">
        <ele>230</ele>
        <time>2013-02-03T11:45:57Z</time>
      </trkpt>
      <trkpt lat="46.76129" lon="4.83463">
        <ele>230</ele>
        <time>2013-02-03T11:46:07Z</time>
      </trkpt>
      <trkpt lat="46.76124" lon="4.83441">
        <ele>231</ele>
        <time>2013-02-03T11:46:15Z</time>
      </trkpt>
      <trkpt lat="46.76116" lon="4.83421">
        <ele>231</ele>
        <time>2013-02-03T11:46:23Z</time>
      </trkpt>
      <trkpt lat="46.76104" lon="4.83396">
        <ele>231</ele>
        <time>2013-02-03T11:46:32Z</time>
      </trkpt>
      <trkpt lat="46.76092" lon="4.83373">
        <ele>231</ele>
        <time>2013-02-03T11:46:41Z</time>
      </trkpt>
      <trkpt lat="46.76085" lon="4.83341">
        <ele>231</ele>
        <time>2013-02-03T11:46:53Z</time>
      </trkpt>
      <trkpt lat="46.76089" lon="4.83312">
        <ele>231</ele>
        <time>2013-02-03T11:47:04Z</time>
      </trkpt>
      <trkpt lat="46.76087" lon="4.83285">
        <ele>231</ele>
        <time>2013-02-03T11:47:14Z</time>
      </trkpt>
      <trkpt lat="46.76074" lon="4.83265">
        <ele>231</ele>
        <time>2013-02-03T11:47:24Z</time>
      </trkpt>
      <trkpt lat="46.76071" lon="4.83258">
        <ele>231</ele>
        <time>2013-02-03T11:47:27Z</time>
      </trkpt>
      <trkpt lat="46.76061" lon="4.83231">
        <ele>231</ele>
        <time>2013-02-03T11:47:39Z</time>
      </trkpt>
      <trkpt lat="46.76057" lon="4.83211">
        <ele>231</ele>
        <time>2013-02-03T11:47:47Z</time>
      </trkpt>
      <trkpt lat="46.76048" lon="4.83186">
        <ele>231</ele>
        <time>2013-02-03T11:47:59Z</time>
      </trkpt>
      <trkpt lat="46.76035" lon="4.83159">
        <ele>230</ele>
        <time>2013-02-03T11:48:11Z</time>
      </trkpt>
      <trkpt lat="46.76022" lon="4.83135">
        <ele>230</ele>
        <time>2013-02-03T11:48:21Z</time>
      </trkpt>
      <trkpt lat="46.76016" lon="4.8312">
        <ele>230</ele>
        <time>2013-02-03T11:48:26Z</time>
      </trkpt>
      <trkpt lat="46.76003" lon="4.8309">
        <ele>231</ele>
        <time>2013-02-03T11:48:38Z</time>
      </trkpt>
      <trkpt lat="46.75991" lon="4.8307">
        <ele>231</ele>
        <time>2013-02-03T11:48:48Z</time>
      </trkpt>
      <trkpt lat="46.75984" lon="4.83055">
        <ele>230</ele>
        <time>2013-02-03T11:48:56Z</time>
      </trkpt>
      <trkpt lat="46.75967" lon="4.8303">
        <ele>230</ele>
        <time>2013-02-03T11:49:14Z</time>
      </trkpt>
      <trkpt lat="46.75958" lon="4.83009">
        <ele>230</ele>
        <time>2013-02-03T11:49:29Z</time>
      </trkpt>
      <trkpt lat="46.75961" lon="4.82977">
        <ele>230</ele>
        <time>2013-02-03T11:49:46Z</time>
      </trkpt>
      <trkpt lat="46.75968" lon="4.82954">
        <ele>230</ele>
        <time>2013-02-03T11:50:00Z</time>
      </trkpt>
      <trkpt lat="46.7597" lon="4.82939">
        <ele>230</ele>
        <time>2013-02-03T11:50:08Z</time>
      </trkpt>
      <trkpt lat="46.75976" lon="4.82907">
        <ele>230</ele>
        <time>2013-02-03T11:50:22Z</time>
      </trkpt>
      <trkpt lat="46.75984" lon="4.82875">
        <ele>231</ele>
        <time>2013-02-03T11:50:33Z</time>
      </trkpt>
      <trkpt lat="46.75988" lon="4.82849">
        <ele>231</ele>
        <time>2013-02-03T11:50:40Z</time>
      </trkpt>
      <trkpt lat="46.75997" lon="4.82822">
        <ele>231</ele>
        <time>2013-02-03T11:50:48Z</time>
      </trkpt>
      <trkpt lat="46.76013" lon="4.82806">
        <ele>231</ele>
        <time>2013-02-03T11:50:56Z</time>
      </trkpt>
      <trkpt lat="46.76036" lon="4.82811">
        <ele>231</ele>
        <time>2013-02-03T11:51:06Z</time>
      </trkpt>
      <trkpt lat="46.76048" lon="4.82804">
        <ele>231</ele>
        <time>2013-02-03T11:51:14Z</time>
      </trkpt>
      <trkpt lat="46.76065" lon="4.82778">
        <ele>230</ele>
        <time>2013-02-03T11:51:27Z</time>
      </trkpt>
      <trkpt lat="46.76074" lon="4.82764">
        <ele>230</ele>
        <time>2013-02-03T11:51:34Z</time>
      </trkpt>
      <trkpt lat="46.76093" lon="4.82757">
        <ele>229</ele>
        <time>2013-02-03T11:51:44Z</time>
      </trkpt>
      <trkpt lat="46.76105" lon="4.82763">
        <ele>229</ele>
        <time>2013-02-03T11:51:49Z</time>
      </trkpt>
      <trkpt lat="46.76126" lon="4.8277">
        <ele>229</ele>
        <time>2013-02-03T11:51:59Z</time>
      </trkpt>
      <trkpt lat="46.76132" lon="4.82772">
        <ele>229</ele>
        <time>2013-02-03T11:52:02Z</time>
      </trkpt>
      <trkpt lat="46.76142" lon="4.82773">
        <ele>229</ele>
        <time>2013-02-03T11:52:07Z</time>
      </trkpt>
      <trkpt lat="46.76156" lon="4.82779">
        <ele>229</ele>
        <time>2013-02-03T11:52:14Z</time>
      </trkpt>
      <trkpt lat="46.76174" lon="4.8279">
        <ele>229</ele>
        <time>2013-02-03T11:52:23Z</time>
      </trkpt>
      <trkpt lat="46.7618" lon="4.82794">
        <ele>229</ele>
        <time>2013-02-03T11:52:26Z</time>
      </trkpt>
      <trkpt lat="46.76203" lon="4.828">
        <ele>229</ele>
        <time>2013-02-03T11:52:37Z</time>
      </trkpt>
      <trkpt lat="46.76217" lon="4.82795">
        <ele>229</ele>
        <time>2013-02-03T11:52:44Z</time>
      </trkpt>
      <trkpt lat="46.76235" lon="4.82786">
        <ele>229</ele>
        <time>2013-02-03T11:52:54Z</time>
      </trkpt>
      <trkpt lat="46.76248" lon="4.82777">
        <ele>229</ele>
        <time>2013-02-03T11:53:01Z</time>
      </trkpt>
      <trkpt lat="46.76265" lon="4.82758">
        <ele>229</ele>
        <time>2013-02-03T11:53:10Z</time>
      </trkpt>
      <trkpt lat="46.76272" lon="4.8275">
        <ele>229</ele>
        <time>2013-02-03T11:53:14Z</time>
      </trkpt>
      <trkpt lat="46.76277" lon="4.82744">
        <ele>229</ele>
        <time>2013-02-03T11:53:17Z</time>
      </trkpt>
      <trkpt lat="46.76292" lon="4.82724">
        <ele>229</ele>
        <time>2013-02-03T11:53:26Z</time>
      </trkpt>
      <trkpt lat="46.76308" lon="4.82709">
        <ele>229</ele>
        <time>2013-02-03T11:53:35Z</time>
      </trkpt>
      <trkpt lat="46.76323" lon="4.82697">
        <ele>229</ele>
        <time>2013-02-03T11:53:44Z</time>
      </trkpt>
      <trkpt lat="46.76339" lon="4.82686">
        <ele>229</ele>
        <time>2013-02-03T11:53:53Z</time>
      </trkpt>
      <trkpt lat="46.76358" lon="4.82672">
        <ele>229</ele>
        <time>2013-02-03T11:54:03Z</time>
      </trkpt>
      <trkpt lat="46.76373" lon="4.82661">
        <ele>229</ele>
        <time>2013-02-03T11:54:11Z</time>
      </trkpt>
      <trkpt lat="46.76393" lon="4.82642">
        <ele>230</ele>
        <time>2013-02-03T11:54:23Z</time>
      </trkpt>
      <trkpt lat="46.76405" lon="4.82626">
        <ele>230</ele>
        <time>2013-02-03T11:54:32Z</time>
      </trkpt>
      <trkpt lat="46.76404" lon="4.82603">
        <ele>230</ele>
        <time>2013-02-03T11:54:41Z</time>
      </trkpt>
      <trkpt lat="46.76397" lon="4.82575">
        <ele>230</ele>
        <time>2013-02-03T11:54:51Z</time>
      </trkpt>
      <trkpt lat="46.76389" lon="4.82548">
        <ele>230</ele>
        <time>2013-02-03T11:55:01Z</time>
      </trkpt>
      <trkpt lat="46.76382" lon="4.82522">
        <ele>231</ele>
        <time>2013-02-03T11:55:10Z</time>
      </trkpt>
      <trkpt lat="46.76373" lon="4.82492">
        <ele>231</ele>
        <time>2013-02-03T11:55:20Z</time>
      </trkpt>
      <trkpt lat="46.76367" lon="4.82465">
        <ele>232</ele>
        <time>2013-02-03T11:55:29Z</time>
      </trkpt>
      <trkpt lat="46.76371" lon="4.82437">
        <ele>232</ele>
        <time>2013-02-03T11:55:39Z</time>
      </trkpt>
      <trkpt lat="46.76388" lon="4.82419">
        <ele>233</ele>
        <time>2013-02-03T11:55:49Z</time>
      </trkpt>
      <trkpt lat="46.76406" lon="4.82407">
        <ele>234</ele>
        <time>2013-02-03T11:55:58Z</time>
      </trkpt>
      <trkpt lat="46.76424" lon="4.82395">
        <ele>235</ele>
        <time>2013-02-03T11:56:08Z</time>
      </trkpt>
      <trkpt lat="46.76443" lon="4.82384">
        <ele>235</ele>
        <time>2013-02-03T11:56:18Z</time>
      </trkpt>
      <trkpt lat="46.76455" lon="4.82376">
        <ele>236</ele>
        <time>2013-02-03T11:56:24Z</time>
      </trkpt>
      <trkpt lat="46.76472" lon="4.82364">
        <ele>236</ele>
        <time>2013-02-03T11:56:33Z</time>
      </trkpt>
      <trkpt lat="46.76477" lon="4.8236">
        <ele>236</ele>
        <time>2013-02-03T11:56:36Z</time>
      </trkpt>
      <trkpt lat="46.76495" lon="4.82344">
        <ele>237</ele>
        <time>2013-02-03T11:56:46Z</time>
      </trkpt>
      <trkpt lat="46.76512" lon="4.82324">
        <ele>237</ele>
        <time>2013-02-03T11:56:57Z</time>
      </trkpt>
      <trkpt lat="46.76521" lon="4.8231">
        <ele>238</ele>
        <time>2013-02-03T11:57:04Z</time>
      </trkpt>
      <trkpt lat="46.76534" lon="4.82285">
        <ele>238</ele>
        <time>2013-02-03T11:57:15Z</time>
      </trkpt>
      <trkpt lat="46.76548" lon="4.82263">
        <ele>239</ele>
        <time>2013-02-03T11:57:25Z</time>
      </trkpt>
      <trkpt lat="46.76556" lon="4.82249">
        <ele>239</ele>
        <time>2013-02-03T11:57:31Z</time>
      </trkpt>
      <trkpt lat="46.7656" lon="4.82243">
        <ele>239</ele>
        <time>2013-02-03T11:57:34Z</time>
      </trkpt>
      <trkpt lat="46.76567" lon="4.82232">
        <ele>239</ele>
        <time>2013-02-03T11:57:39Z</time>
      </trkpt>
      <trkpt lat="46.7658" lon="4.82206">
        <ele>240</ele>
        <time>2013-02-03T11:57:50Z</time>
      </trkpt>
      <trkpt lat="46.76589" lon="4.82181">
        <ele>240</ele>
        <time>2013-02-03T11:57:59Z</time>
      </trkpt>
      <trkpt lat="46.76598" lon="4.82155">
        <ele>240</ele>
        <time>2013-02-03T11:58:09Z</time>
      </trkpt>
      <trkpt lat="46.76607" lon="4.82128">
        <ele>241</ele>
        <time>2013-02-03T11:58:19Z</time>
      </trkpt>
      <trkpt lat="46.76615" lon="4.82104">
        <ele>241</ele>
        <time>2013-02-03T11:58:28Z</time>
      </trkpt>
      <trkpt lat="46.76618" lon="4.82096">
        <ele>241</ele>
        <time>2013-02-03T11:58:31Z</time>
      </trkpt>
      <trkpt lat="46.7663" lon="4.82071">
        <ele>241</ele>
        <time>2013-02-03T11:58:41Z</time>
      </trkpt>
      <trkpt lat="46.76641" lon="4.82048">
        <ele>241</ele>
        <time>2013-02-03T11:58:50Z</time>
      </trkpt>
      <trkpt lat="46.7665" lon="4.82035">
        <ele>241</ele>
        <time>2013-02-03T11:58:55Z</time>
      </trkpt>
      <trkpt lat="46.76662" lon="4.82015">
        <ele>242</ele>
        <time>2013-02-03T11:59:03Z</time>
      </trkpt>
      <trkpt lat="46.76672" lon="4.81993">
        <ele>242</ele>
        <time>2013-02-03T11:59:14Z</time>
      </trkpt>
      <trkpt lat="46.76681" lon="4.81973">
        <ele>243</ele>
        <time>2013-02-03T11:59:27Z</time>
      </trkpt>
      <trkpt lat="46.76686" lon="4.8196">
        <ele>243</ele>
        <time>2013-02-03T11:59:35Z</time>
      </trkpt>
      <trkpt lat="46.76692" lon="4.81941">
        <ele>243</ele>
        <time>2013-02-03T11:59:49Z</time>
      </trkpt>
      <trkpt lat="46.76684" lon="4.81904">
        <ele>244</ele>
        <time>2013-02-03T12:00:08Z</time>
      </trkpt>
      <trkpt lat="46.76675" lon="4.81886">
        <ele>244</ele>
        <time>2013-02-03T12:00:17Z</time>
      </trkpt>
      <trkpt lat="46.76671" lon="4.81873">
        <ele>245</ele>
        <time>2013-02-03T12:00:24Z</time>
      </trkpt>
      <trkpt lat="46.76661" lon="4.81852">
        <ele>245</ele>
        <time>2013-02-03T12:00:37Z</time>
      </trkpt>
      <trkpt lat="46.7665" lon="4.81836">
        <ele>246</ele>
        <time>2013-02-03T12:00:48Z</time>
      </trkpt>
      <trkpt lat="46.76642" lon="4.8181">
        <ele>246</ele>
        <time>2013-02-03T12:01:02Z</time>
      </trkpt>
      <trkpt lat="46.76645" lon="4.81783">
        <ele>247</ele>
        <time>2013-02-03T12:01:15Z</time>
      </trkpt>
      <trkpt lat="46.76655" lon="4.81759">
        <ele>247</ele>
        <time>2013-02-03T12:01:27Z</time>
      </trkpt>
      <trkpt lat="46.76673" lon="4.81736">
        <ele>248</ele>
        <time>2013-02-03T12:01:40Z</time>
      </trkpt>
      <trkpt lat="46.76686" lon="4.81716">
        <ele>248</ele>
        <time>2013-02-03T12:01:48Z</time>
      </trkpt>
      <trkpt lat="46.76703" lon="4.81687">
        <ele>249</ele>
        <time>2013-02-03T12:01:59Z</time>
      </trkpt>
      <trkpt lat="46.76715" lon="4.81665">
        <ele>250</ele>
        <time>2013-02-03T12:02:08Z</time>
      </trkpt>
      <trkpt lat="46.7673" lon="4.81649">
        <ele>250</ele>
        <time>2013-02-03T12:02:18Z</time>
      </trkpt>
      <trkpt lat="46.76747" lon="4.81633">
        <ele>251</ele>
        <time>2013-02-03T12:02:28Z</time>
      </trkpt>
      <trkpt lat="46.76763" lon="4.81618">
        <ele>251</ele>
        <time>2013-02-03T12:02:38Z</time>
      </trkpt>
      <trkpt lat="46.76783" lon="4.81598">
        <ele>252</ele>
        <time>2013-02-03T12:02:50Z</time>
      </trkpt>
      <trkpt lat="46.76801" lon="4.8158">
        <ele>252</ele>
        <time>2013-02-03T12:03:01Z</time>
      </trkpt>
      <trkpt lat="46.76818" lon="4.81564">
        <ele>252</ele>
        <time>2013-02-03T12:03:11Z</time>
      </trkpt>
      <trkpt lat="46.76833" lon="4.81547">
        <ele>252</ele>
        <time>2013-02-03T12:03:20Z</time>
      </trkpt>
      <trkpt lat="46.76849" lon="4.81523">
        <ele>253</ele>
        <time>2013-02-03T12:03:31Z</time>
      </trkpt>
      <trkpt lat="46.76867" lon="4.81498">
        <ele>253</ele>
        <time>2013-02-03T12:03:43Z</time>
      </trkpt>
      <trkpt lat="46.76881" lon="4.81483">
        <ele>254</ele>
        <time>2013-02-03T12:03:51Z</time>
      </trkpt>
      <trkpt lat="46.76898" lon="4.81468">
        <ele>254</ele>
        <time>2013-02-03T12:04:01Z</time>
      </trkpt>
      <trkpt lat="46.76913" lon="4.81455">
        <ele>255</ele>
        <time>2013-02-03T12:04:10Z</time>
      </trkpt>
      <trkpt lat="46.76934" lon="4.81453">
        <ele>255</ele>
        <time>2013-02-03T12:04:20Z</time>
      </trkpt>
      <trkpt lat="46.76942" lon="4.81455">
        <ele>255</ele>
        <time>2013-02-03T12:04:23Z</time>
      </trkpt>
      <trkpt lat="46.76948" lon="4.81457">
        <ele>255</ele>
        <time>2013-02-03T12:04:26Z</time>
      </trkpt>
      <trkpt lat="46.76968" lon="4.81459">
        <ele>255</ele>
        <time>2013-02-03T12:04:35Z</time>
      </trkpt>
      <trkpt lat="46.76975" lon="4.81461">
        <ele>255</ele>
        <time>2013-02-03T12:04:38Z</time>
      </trkpt>
      <trkpt lat="46.76981" lon="4.81462">
        <ele>255</ele>
        <time>2013-02-03T12:04:41Z</time>
      </trkpt>
      <trkpt lat="46.76987" lon="4.81462">
        <ele>255</ele>
        <time>2013-02-03T12:04:44Z</time>
      </trkpt>
      <trkpt lat="46.77008" lon="4.81462">
        <ele>255</ele>
        <time>2013-02-03T12:04:54Z</time>
      </trkpt>
      <trkpt lat="46.77028" lon="4.81461">
        <ele>255</ele>
        <time>2013-02-03T12:05:04Z</time>
      </trkpt>
      <trkpt lat="46.77048" lon="4.81458">
        <ele>255</ele>
        <time>2013-02-03T12:05:14Z</time>
      </trkpt>
      <trkpt lat="46.77069" lon="4.81452">
        <ele>255</ele>
        <time>2013-02-03T12:05:24Z</time>
      </trkpt>
      <trkpt lat="46.77094" lon="4.81448">
        <ele>256</ele>
        <time>2013-02-03T12:05:36Z</time>
      </trkpt>
      <trkpt lat="46.77115" lon="4.81448">
        <ele>256</ele>
        <time>2013-02-03T12:05:47Z</time>
      </trkpt>
      <trkpt lat="46.77136" lon="4.81456">
        <ele>256</ele>
        <time>2013-02-03T12:05:58Z</time>
      </trkpt>
      <trkpt lat="46.77162" lon="4.81463">
        <ele>256</ele>
        <time>2013-02-03T12:06:10Z</time>
      </trkpt>
      <trkpt lat="46.77179" lon="4.81468">
        <ele>256</ele>
        <time>2013-02-03T12:06:18Z</time>
      </trkpt>
      <trkpt lat="46.77199" lon="4.81475">
        <ele>256</ele>
        <time>2013-02-03T12:06:28Z</time>
      </trkpt>
      <trkpt lat="46.77216" lon="4.81482">
        <ele>256</ele>
        <time>2013-02-03T12:06:37Z</time>
      </trkpt>
      <trkpt lat="46.77235" lon="4.81491">
        <ele>256</ele>
        <time>2013-02-03T12:06:46Z</time>
      </trkpt>
      <trkpt lat="46.7726" lon="4.81502">
        <ele>256</ele>
        <time>2013-02-03T12:06:58Z</time>
      </trkpt>
      <trkpt lat="46.77273" lon="4.81507">
        <ele>256</ele>
        <time>2013-02-03T12:07:04Z</time>
      </trkpt>
      <trkpt lat="46.77293" lon="4.81517">
        <ele>256</ele>
        <time>2013-02-03T12:07:14Z</time>
      </trkpt>
      <trkpt lat="46.7731" lon="4.81524">
        <ele>256</ele>
        <time>2013-02-03T12:07:22Z</time>
      </trkpt>
      <trkpt lat="46.7733" lon="4.81541">
        <ele>256</ele>
        <time>2013-02-03T12:07:33Z</time>
      </trkpt>
      <trkpt lat="46.77348" lon="4.81554">
        <ele>255</ele>
        <time>2013-02-03T12:07:42Z</time>
      </trkpt>
      <trkpt lat="46.77355" lon="4.81557">
        <ele>255</ele>
        <time>2013-02-03T12:07:45Z</time>
      </trkpt>
      <trkpt lat="46.77365" lon="4.81564">
        <ele>255</ele>
        <time>2013-02-03T12:07:50Z</time>
      </trkpt>
      <trkpt lat="46.7738" lon="4.81586">
        <ele>255</ele>
        <time>2013-02-03T12:08:00Z</time>
      </trkpt>
      <trkpt lat="46.77387" lon="4.81619">
        <ele>254</ele>
        <time>2013-02-03T12:08:11Z</time>
      </trkpt>
      <trkpt lat="46.77393" lon="4.81649">
        <ele>254</ele>
        <time>2013-02-03T12:08:19Z</time>
      </trkpt>
      <trkpt lat="46.77393" lon="4.81681">
        <ele>254</ele>
        <time>2013-02-03T12:08:27Z</time>
      </trkpt>
      <trkpt lat="46.77393" lon="4.81693">
        <ele>254</ele>
        <time>2013-02-03T12:08:30Z</time>
      </trkpt>
      <trkpt lat="46.77393" lon="4.81725">
        <ele>253</ele>
        <time>2013-02-03T12:08:38Z</time>
      </trkpt>
      <trkpt lat="46.77394" lon="4.81751">
        <ele>253</ele>
        <time>2013-02-03T12:08:45Z</time>
      </trkpt>
      <trkpt lat="46.77395" lon="4.81778">
        <ele>252</ele>
        <time>2013-02-03T12:08:52Z</time>
      </trkpt>
      <trkpt lat="46.77395" lon="4.81803">
        <ele>252</ele>
        <time>2013-02-03T12:09:00Z</time>
      </trkpt>
      <trkpt lat="46.77394" lon="4.81818">
        <ele>251</ele>
        <time>2013-02-03T12:09:05Z</time>
      </trkpt>
      <trkpt lat="46.77393" lon="4.81853">
        <ele>251</ele>
        <time>2013-02-03T12:09:15Z</time>
      </trkpt>
      <trkpt lat="46.77393" lon="4.81883">
        <ele>250</ele>
        <time>2013-02-03T12:09:23Z</time>
      </trkpt>
      <trkpt lat="46.77391" lon="4.81914">
        <ele>250</ele>
        <time>2013-02-03T12:09:32Z</time>
      </trkpt>
      <trkpt lat="46.77391" lon="4.81932">
        <ele>250</ele>
        <time>2013-02-03T12:09:38Z</time>
      </trkpt>
      <trkpt lat="46.77391" lon="4.81941">
        <ele>250</ele>
        <time>2013-02-03T12:09:41Z</time>
      </trkpt>
      <trkpt lat="46.77391" lon="4.81954">
        <ele>250</ele>
        <time>2013-02-03T12:09:45Z</time>
      </trkpt>
      <trkpt lat="46.77391" lon="4.81983">
        <ele>250</ele>
        <time>2013-02-03T12:09:52Z</time>
      </trkpt>
      <trkpt lat="46.77396" lon="4.82016">
        <ele>250</ele>
        <time>2013-02-03T12:10:01Z</time>
      </trkpt>
      <trkpt lat="46.77397" lon="4.82046">
        <ele>250</ele>
        <time>2013-02-03T12:10:10Z</time>
      </trkpt>
      <trkpt lat="46.77398" lon="4.82072">
        <ele>250</ele>
        <time>2013-02-03T12:10:18Z</time>
      </trkpt>
      <trkpt lat="46.77398" lon="4.82082">
        <ele>250</ele>
        <time>2013-02-03T12:10:21Z</time>
      </trkpt>
      <trkpt lat="46.77408" lon="4.82096">
        <ele>249</ele>
        <time>2013-02-03T12:10:29Z</time>
      </trkpt>
      <trkpt lat="46.77429" lon="4.82086">
        <ele>249</ele>
        <time>2013-02-03T12:10:39Z</time>
      </trkpt>
      <trkpt lat="46.77443" lon="4.82078">
        <ele>249</ele>
        <time>2013-02-03T12:10:46Z</time>
      </trkpt>
      <trkpt lat="46.77463" lon="4.82072">
        <ele>248</ele>
        <time>2013-02-03T12:10:56Z</time>
      </trkpt>
      <trkpt lat="46.77474" lon="4.8207">
        <ele>248</ele>
        <time>2013-02-03T12:11:01Z</time>
      </trkpt>
      <trkpt lat="46.77495" lon="4.82074">
        <ele>247</ele>
        <time>2013-02-03T12:11:10Z</time>
      </trkpt>
      <trkpt lat="46.77515" lon="4.82082">
        <ele>247</ele>
        <time>2013-02-03T12:11:19Z</time>
      </trkpt>
      <trkpt lat="46.77533" lon="4.82092">
        <ele>247</ele>
        <time>2013-02-03T12:11:28Z</time>
      </trkpt>
      <trkpt lat="46.77551" lon="4.82103">
        <ele>247</ele>
        <time>2013-02-03T12:11:37Z</time>
      </trkpt>
      <trkpt lat="46.77572" lon="4.82113">
        <ele>246</ele>
        <time>2013-02-03T12:11:48Z</time>
      </trkpt>
      <trkpt lat="46.77585" lon="4.82115">
        <ele>246</ele>
        <time>2013-02-03T12:11:55Z</time>
      </trkpt>
      <trkpt lat="46.77601" lon="4.82114">
        <ele>245</ele>
        <time>2013-02-03T12:12:03Z</time>
      </trkpt>
      <trkpt lat="46.77617" lon="4.82113">
        <ele>245</ele>
        <time>2013-02-03T12:12:12Z</time>
      </trkpt>
      <trkpt lat="46.77638" lon="4.82131">
        <ele>245</ele>
        <time>2013-02-03T12:12:24Z</time>
      </trkpt>
      <trkpt lat="46.77654" lon="4.82146">
        <ele>245</ele>
        <time>2013-02-03T12:12:34Z</time>
      </trkpt>
      <trkpt lat="46.77675" lon="4.82158">
        <ele>244</ele>
        <time>2013-02-03T12:12:46Z</time>
      </trkpt>
      <trkpt lat="46.77688" lon="4.82151">
        <ele>244</ele>
        <time>2013-02-03T12:12:53Z</time>
      </trkpt>
      <trkpt lat="46.77693" lon="4.82147">
        <ele>244</ele>
        <time>2013-02-03T12:12:56Z</time>
      </trkpt>
      <trkpt lat="46.77702" lon="4.8214">
        <ele>244</ele>
        <time>2013-02-03T12:13:01Z</time>
      </trkpt>
      <trkpt lat="46.77712" lon="4.82134">
        <ele>244</ele>
        <time>2013-02-03T12:13:06Z</time>
      </trkpt>
      <trkpt lat="46.7773" lon="4.82123">
        <ele>243</ele>
        <time>2013-02-03T12:13:16Z</time>
      </trkpt>
      <trkpt lat="46.77748" lon="4.82117">
        <ele>243</ele>
        <time>2013-02-03T12:13:25Z</time>
      </trkpt>
      <trkpt lat="46.77767" lon="4.82106">
        <ele>243</ele>
        <time>2013-02-03T12:13:34Z</time>
      </trkpt>
      <trkpt lat="46.77788" lon="4.82093">
        <ele>243</ele>
        <time>2013-02-03T12:13:44Z</time>
      </trkpt>
      <trkpt lat="46.7781" lon="4.82078">
        <ele>243</ele>
        <time>2013-02-03T12:13:54Z</time>
      </trkpt>
      <trkpt lat="46.77832" lon="4.82075">
        <ele>243</ele>
        <time>2013-02-03T12:14:04Z</time>
      </trkpt>
      <trkpt lat="46.77847" lon="4.82087">
        <ele>243</ele>
        <time>2013-02-03T12:14:12Z</time>
      </trkpt>
      <trkpt lat="46.77865" lon="4.82104">
        <ele>243</ele>
        <time>2013-02-03T12:14:22Z</time>
      </trkpt>
      <trkpt lat="46.77882" lon="4.82122">
        <ele>243</ele>
        <time>2013-02-03T12:14:32Z</time>
      </trkpt>
      <trkpt lat="46.77887" lon="4.82127">
        <ele>243</ele>
        <time>2013-02-03T12:14:35Z</time>
      </trkpt>
      <trkpt lat="46.77904" lon="4.82147">
        <ele>242</ele>
        <time>2013-02-03T12:14:45Z</time>
      </trkpt>
      <trkpt lat="46.77918" lon="4.82164">
        <ele>242</ele>
        <time>2013-02-03T12:14:53Z</time>
      </trkpt>
      <trkpt lat="46.77933" lon="4.82187">
        <ele>242</ele>
        <time>2013-02-03T12:15:03Z</time>
      </trkpt>
      <trkpt lat="46.77945" lon="4.82212">
        <ele>241</ele>
        <time>2013-02-03T12:15:12Z</time>
      </trkpt>
      <trkpt lat="46.7796" lon="4.82226">
        <ele>241</ele>
        <time>2013-02-03T12:15:20Z</time>
      </trkpt>
      <trkpt lat="46.7796" lon="4.82226">
        <ele>186</ele>
        <time>2013-02-03T12:15:21Z</time>
      </trkpt>
      <trkpt lat="46.7796" lon="4.82226">
        <ele>186</ele>
        <time>2013-02-03T12:16:02Z</time>
      </trkpt>
    </trkseg>
  </trk>
</gpx>